Time;durP1;ratioP1;P1;durP2;ratioP2;P2;SDS_P1;SDS_P2;PMS_P1;PMS_P2;Temp;Humidity;BMP_temperature;BMP_pressure;BME280_temperature;BME280_humidity;BME280_pressure;Samples;Min_cycle;Max_cycle;Signal;HPM_P1;HPM_P2
2022/01/06 00:00:32;;;;;;;6.20;1.20;;;;;;;3.12;90.67;100078.67;107423;1284;61459;-81
2022/01/06 00:02:59;;;;;;;5.30;0.90;;;;;;;3.09;90.47;100086.20;107395;1284;61648;-80
2022/01/06 00:05:25;;;;;;;10.20;1.70;;;;;;;3.09;90.65;100083.14;107369;1284;73898;-80
2022/01/06 00:07:53;;;;;;;9.30;0.90;;;;;;;3.08;90.20;100093.88;107363;1284;72441;-79
2022/01/06 00:10:20;;;;;;;2.40;0.70;;;;;;;3.07;90.19;100099.73;107377;1284;74053;-79
2022/01/06 00:13:03;;;;;;;6.10;1.30;;;;;;;3.05;90.29;100102.55;107471;1282;62516;-78
2022/01/06 00:15:41;;;;;;;11.80;1.60;;;;;;;3.01;91.17;100101.81;107474;1284;61940;-82
2022/01/06 00:18:19;;;;;;;3.20;1.20;;;;;;;2.97;91.83;100101.84;107438;1283;74305;-80
2022/01/06 00:23:38;;;;;;;;;;;;;;;2.81;93.81;100120.42;107411;1284;73068;-80
2022/01/06 00:26:07;;;;;;;9.70;1.90;;;;;;;2.72;94.43;100130.27;107502;1283;62608;-81
2022/01/06 00:28:34;;;;;;;4.70;1.30;;;;;;;2.64;95.34;100128.75;107492;1284;60896;-81
2022/01/06 00:31:01;;;;;;;8.60;1.20;;;;;;;2.58;96.22;100141.89;107432;1284;74437;-82
2022/01/06 00:33:31;;;;;;;3.70;0.80;;;;;;;2.54;96.90;100133.17;107307;1284;71427;-82
2022/01/06 00:35:58;;;;;;;5.90;0.90;;;;;;;2.51;97.01;100143.18;107313;1283;74171;-80
2022/01/06 00:38:25;;;;;;;6.00;1.00;;;;;;;2.50;97.55;100156.05;107318;1284;62815;-83
2022/01/06 00:40:56;;;;;;;5.20;1.50;;;;;;;2.48;98.31;100183.58;107398;1283;60545;-83
2022/01/06 00:43:24;;;;;;;3.70;1.00;;;;;;;2.45;98.87;100185.91;107338;1284;74164;-83
2022/01/06 00:45:51;;;;;;;6.40;1.20;;;;;;;2.40;99.86;100197.73;107189;1285;71505;-80
2022/01/06 00:48:18;;;;;;;6.70;1.40;;;;;;;2.31;99.94;100207.91;107342;1283;72898;-81
2022/01/06 00:50:44;;;;;;;5.30;1.00;;;;;;;2.16;99.21;100223.67;107324;1284;58364;-80
2022/01/06 00:53:12;;;;;;;3.90;0.50;;;;;;;2.00;99.33;100228.36;107240;1284;60691;-80
2022/01/06 00:55:39;;;;;;;2.50;1.00;;;;;;;1.83;99.59;100229.29;107401;1284;74110;-80
2022/01/06 00:58:07;;;;;;;2.80;1.10;;;;;;;1.71;99.93;100231.70;107355;1284;71689;-81
2022/01/06 01:00:38;;;;;;;2.40;0.80;;;;;;;1.61;100.00;100240.19;107353;1284;74016;-80
2022/01/06 01:03:10;;;;;;;3.40;0.50;;;;;;;1.54;100.00;100246.75;107367;1284;61391;-81
2022/01/06 01:05:39;;;;;;;2.80;1.10;;;;;;;1.47;100.00;100255.81;107036;1284;60409;-81
2022/01/06 01:08:06;;;;;;;3.90;0.90;;;;;;;1.43;100.00;100263.00;107299;1284;74243;-81
2022/01/06 01:10:33;;;;;;;1.50;0.70;;;;;;;1.40;100.00;100266.20;107079;1284;72384;-80
2022/01/06 01:13:00;;;;;;;2.90;0.60;;;;;;;1.37;100.00;100267.27;107340;1284;73120;-81
2022/01/06 01:15:28;;;;;;;1.90;0.50;;;;;;;1.34;100.00;100272.41;107296;1283;61165;-79
2022/01/06 01:18:04;;;;;;;2.60;0.70;;;;;;;1.33;100.00;100281.70;107479;1284;60579;-80
2022/01/06 01:20:32;;;;;;;3.90;1.70;;;;;;;1.32;100.00;100290.88;107257;1284;75481;-79
2022/01/06 01:22:59;;;;;;;2.10;1.10;;;;;;;1.31;100.00;100293.63;107182;1284;72452;-80
2022/01/06 01:25:28;;;;;;;3.40;1.10;;;;;;;1.30;100.00;100302.20;107338;1283;72974;-80
2022/01/06 01:27:56;;;;;;;5.20;1.60;;;;;;;1.27;100.00;100307.13;107381;1284;60920;-81
2022/01/06 01:30:31;;;;;;;2.10;0.50;;;;;;;1.24;100.00;100315.02;107397;1284;61817;-80
2022/01/06 01:32:59;;;;;;;1.00;0.40;;;;;;;1.20;100.00;100320.92;108239;1271;75238;-79
2022/01/06 01:35:32;;;;;;;4.70;1.30;;;;;;;1.14;100.00;100319.32;107766;1269;72764;-80
2022/01/06 01:37:59;;;;;;;3.10;1.20;;;;;;;1.10;99.99;100330.27;107844;1269;75500;-79
2022/01/06 01:40:26;;;;;;;5.30;1.70;;;;;;;1.02;99.99;100334.71;107523;1271;62530;-79
2022/01/06 01:42:53;;;;;;;3.40;0.80;;;;;;;0.99;99.90;100347.15;107674;1281;60592;-80
2022/01/06 01:45:26;;;;;;;9.60;1.40;;;;;;;0.94;99.77;100353.13;107629;1281;75419;-80
2022/01/06 01:47:53;;;;;;;5.20;1.60;;;;;;;0.90;99.78;100359.92;107621;1281;74615;-80
2022/01/06 01:50:21;;;;;;;5.60;1.40;;;;;;;0.86;99.61;100368.60;107517;1282;58899;-80
2022/01/06 01:52:56;;;;;;;3.70;1.30;;;;;;;0.79;99.39;100373.64;107505;1282;61211;-80
2022/01/06 01:55:32;;;;;;;5.80;1.50;;;;;;;0.72;99.43;100387.89;107515;1282;60662;-81
2022/01/06 01:58:08;;;;;;;3.90;1.60;;;;;;;0.68;99.72;100394.17;107556;1269;75329;-81
2022/01/06 02:00:35;;;;;;;6.50;1.80;;;;;;;0.64;99.98;100400.75;107790;1281;71753;-81
2022/01/06 02:03:02;;;;;;;4.50;1.20;;;;;;;0.61;99.90;100405.95;107762;1281;74645;-81
2022/01/06 02:05:29;;;;;;;3.70;0.60;;;;;;;0.57;99.93;100408.60;107668;1281;61177;-80
2022/01/06 02:07:58;;;;;;;1.40;0.70;;;;;;;0.54;100.00;100417.35;107485;1281;61584;-80
2022/01/06 02:10:27;;;;;;;8.20;1.70;;;;;;;0.51;100.00;100423.32;107786;1281;75013;-80
2022/01/06 02:12:56;;;;;;;5.90;1.50;;;;;;;0.47;100.00;100426.95;107776;1281;72832;-79
2022/01/06 02:15:23;;;;;;;3.00;1.70;;;;;;;0.44;99.89;100429.27;107760;1281;72686;-80
2022/01/06 02:17:51;;;;;;;7.90;3.00;;;;;;;0.39;99.89;100434.95;107734;1281;61305;-81
2022/01/06 02:20:20;;;;;;;6.80;2.20;;;;;;;0.36;99.78;100440.95;107743;1281;60645;-80
2022/01/06 02:22:48;;;;;;;9.40;1.50;;;;;;;0.31;99.68;100440.66;107714;1281;74290;-80
2022/01/06 02:25:19;;;;;;;4.50;1.70;;;;;;;0.27;99.77;100446.15;107764;1281;71366;-80
2022/01/06 02:27:49;;;;;;;5.50;1.70;;;;;;;0.24;99.74;100445.72;107497;1281;73076;-79
2022/01/06 02:30:17;;;;;;;6.60;1.40;;;;;;;0.22;99.70;100455.95;107707;1281;62457;-79
2022/01/06 02:32:44;;;;;;;13.00;1.60;;;;;;;0.19;99.83;100462.39;107467;1282;61807;-80
2022/01/06 02:35:16;;;;;;;9.00;1.80;;;;;;;0.17;99.89;100459.21;107728;1282;74312;-80
2022/01/06 02:37:43;;;;;;;1.80;0.90;;;;;;;0.17;99.80;100459.41;107357;1272;71837;-80
2022/01/06 02:45:55;;;;;;;4.10;1.50;;;;;;;0.16;99.03;100460.70;107734;1269;61395;-79
2022/01/06 02:48:23;;;;;;;4.50;1.60;;;;;;;0.16;99.06;100463.30;107575;1270;75128;-79
2022/01/06 02:50:50;;;;;;;7.50;2.20;;;;;;;0.15;99.08;100463.18;107464;1282;71551;-79
2022/01/06 02:53:18;;;;;;;8.80;2.90;;;;;;;0.14;99.02;100468.35;107487;1281;73056;-79
2022/01/06 02:55:53;;;;;;;11.80;2.70;;;;;;;0.11;98.87;100465.63;107474;1282;60987;-79
2022/01/06 02:58:21;;;;;;;8.70;2.50;;;;;;;0.09;99.13;100469.05;107428;1274;59128;-79
2022/01/06 03:00:49;;;;;;;11.80;2.90;;;;;;;0.06;99.45;100469.58;105092;1281;3341350;-79
2022/01/06 03:03:16;;;;;;;9.30;2.10;;;;;;;0.06;99.35;100476.06;107447;1282;70527;-79
2022/01/06 03:05:43;;;;;;;8.60;2.10;;;;;;;0.05;99.57;100485.02;107566;1281;71932;-79
2022/01/06 03:08:09;;;;;;;8.80;2.20;;;;;;;0.03;99.64;100492.05;107625;1282;61632;-79
2022/01/06 03:10:41;;;;;;;10.40;2.40;;;;;;;0.02;99.53;100493.73;107494;1284;60576;-80
2022/01/06 03:13:07;;;;;;;7.20;2.70;;;;;;;0.01;99.73;100491.91;107488;1283;75377;-79
2022/01/06 03:15:34;;;;;;;4.80;1.40;;;;;;;-0.01;100.00;100496.20;107619;1282;71448;-80
2022/01/06 03:18:01;;;;;;;6.60;2.00;;;;;;;-0.04;100.00;100500.19;107734;1282;72950;-79
2022/01/06 03:20:29;;;;;;;8.80;2.40;;;;;;;-0.04;100.00;100501.80;107660;1282;62521;-80
2022/01/06 03:22:57;;;;;;;11.80;2.20;;;;;;;-0.06;100.00;100504.92;107648;1281;60699;-81
2022/01/06 03:25:24;;;;;;;2.90;1.40;;;;;;;-0.10;100.00;100507.98;107458;1284;75807;-80
2022/01/06 03:27:51;;;;;;;7.90;2.50;;;;;;;-0.14;100.00;100511.70;107452;1282;71537;-79
2022/01/06 03:30:19;;;;;;;8.80;2.50;;;;;;;-0.16;100.00;100516.20;107402;1284;73216;-79
2022/01/06 03:32:47;;;;;;;5.60;2.70;;;;;;;-0.17;100.00;100517.70;107604;1272;61500;-80
2022/01/06 03:35:16;;;;;;;11.50;2.90;;;;;;;-0.20;100.00;100523.96;107672;1281;59372;-80
2022/01/06 03:37:43;;;;;;;3.00;1.20;;;;;;;-0.21;100.00;100532.60;107677;1282;74119;-79
2022/01/06 03:40:11;;;;;;;10.50;1.90;;;;;;;-0.22;100.00;100537.70;107637;1282;72529;-80
2022/01/06 03:42:38;;;;;;;10.20;2.80;;;;;;;-0.23;100.00;100541.06;107506;1283;72407;-79
2022/01/06 03:45:08;;;;;;;6.90;1.90;;;;;;;-0.25;100.00;100545.84;107454;1284;62672;-79
2022/01/06 03:47:35;;;;;;;5.20;2.00;;;;;;;-0.25;100.00;100547.77;107675;1281;60069;-80
2022/01/06 03:50:02;;;;;;;14.60;2.00;;;;;;;-0.25;100.00;100555.30;107478;1283;74031;-79
2022/01/06 03:52:29;;;;;;;4.00;1.20;;;;;;;-0.25;100.00;100555.46;107676;1282;71551;-79
2022/01/06 03:54:56;;;;;;;4.50;1.20;;;;;;;-0.27;100.00;100553.50;107635;1282;74110;-80
2022/01/06 03:57:22;;;;;;;9.50;2.00;;;;;;;-0.28;100.00;100558.42;107656;1280;58264;-80
2022/01/06 03:59:48;;;;;;;3.90;1.70;;;;;;;-0.27;100.00;100556.83;107517;1273;58198;-80
2022/01/06 04:02:15;;;;;;;4.80;1.30;;;;;;;-0.28;100.00;100562.23;107513;1282;57679;-80
2022/01/06 04:04:42;;;;;;;5.10;2.00;;;;;;;-0.29;100.00;100566.17;107492;1283;71460;-81
2022/01/06 04:07:09;;;;;;;2.20;1.10;;;;;;;-0.29;100.00;100566.89;107434;1284;74294;-81
2022/01/06 04:09:36;;;;;;;3.40;1.50;;;;;;;-0.28;100.00;100569.91;107493;1283;58569;-81
2022/01/06 04:12:03;;;;;;;6.10;1.80;;;;;;;-0.28;100.00;100571.80;107497;1282;60670;-81
2022/01/06 04:14:29;;;;;;;2.20;0.90;;;;;;;-0.28;100.00;100574.94;107486;1282;74325;-79
2022/01/06 04:16:59;;;;;;;4.60;1.70;;;;;;;-0.30;100.00;100586.77;107417;1284;71593;-79
2022/01/06 04:19:26;;;;;;;5.70;1.70;;;;;;;-0.35;100.00;100594.19;107408;1284;74000;-80
2022/01/06 04:21:53;;;;;;;6.90;1.70;;;;;;;-0.38;100.00;100595.61;107393;1283;61526;-80
2022/01/06 04:24:20;;;;;;;4.20;1.90;;;;;;;-0.38;100.00;100591.13;107469;1284;60763;-79
2022/01/06 04:26:46;;;;;;;11.30;2.40;;;;;;;-0.39;100.00;100596.75;107488;1284;75426;-79
2022/01/06 04:29:13;;;;;;;4.30;2.00;;;;;;;-0.41;100.00;100595.27;107445;1284;71412;-80
2022/01/06 04:34:42;;;;;;;8.10;3.40;;;;;;;-0.42;100.00;100606.11;107536;1272;59983;-77
2022/01/06 04:37:09;;;;;;;4.50;1.80;;;;;;;-0.44;100.00;100613.23;107639;1272;60726;-79
2022/01/06 04:39:35;;;;;;;5.50;2.40;;;;;;;-0.47;100.00;100615.73;107811;1281;74255;-79
2022/01/06 04:42:03;;;;;;;10.30;2.30;;;;;;;-0.50;100.00;100618.67;107554;1282;73694;-79
2022/01/06 04:44:29;;;;;;;8.60;1.60;;;;;;;-0.52;100.00;100623.02;107702;1281;75045;-79
2022/01/06 04:46:56;;;;;;;6.60;1.90;;;;;;;-0.56;100.00;100630.02;107459;1271;62126;-79
2022/01/06 04:49:22;;;;;;;7.70;1.70;;;;;;;-0.59;100.00;100630.07;107570;1282;60467;-79
2022/01/06 04:51:49;;;;;;;9.10;2.30;;;;;;;-0.61;100.00;100634.55;107598;1282;75280;-79
2022/01/06 04:54:19;;;;;;;10.10;2.60;;;;;;;-0.63;100.00;100635.91;107255;1275;71599;-77
2022/01/06 04:56:45;;;;;;;12.30;2.90;;;;;;;-0.69;100.00;100639.63;107473;1273;73119;-80
2022/01/06 04:59:12;;;;;;;6.60;2.20;;;;;;;-0.69;100.00;100654.73;107545;1283;58284;-79
2022/01/06 05:01:38;;;;;;;5.50;1.80;;;;;;;-0.72;100.00;100664.27;107531;1283;60589;-80
2022/01/06 05:04:06;;;;;;;7.70;2.40;;;;;;;-0.75;100.00;100663.14;107437;1284;74135;-79
2022/01/06 05:06:33;;;;;;;4.90;2.20;;;;;;;-0.76;100.00;100668.74;107485;1282;72902;-78
2022/01/06 05:08:59;;;;;;;9.70;2.90;;;;;;;-0.77;100.00;100669.15;107525;1284;74381;-78
2022/01/06 05:11:26;;;;;;;6.40;2.90;;;;;;;-0.78;100.00;100669.03;107407;1284;60694;-80
2022/01/06 05:13:52;;;;;;;11.90;3.10;;;;;;;-0.78;100.00;100673.90;107463;1283;61067;-80
2022/01/06 05:16:19;;;;;;;9.50;2.20;;;;;;;-0.77;100.00;100677.86;107405;1284;59100;-79
2022/01/06 05:18:46;;;;;;;13.20;3.50;;;;;;;-0.77;100.00;100680.30;107481;1284;72742;-78
2022/01/06 05:21:13;;;;;;;12.20;2.90;;;;;;;-0.77;100.00;100680.80;107510;1282;73130;-80
2022/01/06 05:23:41;;;;;;;9.10;2.90;;;;;;;-0.77;100.00;100683.59;107521;1283;61640;-79
2022/01/06 05:26:08;;;;;;;7.20;2.70;;;;;;;-0.78;100.00;100691.29;107484;1284;61689;-79
2022/01/06 05:28:35;;;;;;;5.80;1.70;;;;;;;-0.79;100.00;100698.96;107258;1284;75443;-79
2022/01/06 05:31:02;;;;;;;7.20;2.50;;;;;;;-0.79;100.00;100701.23;107523;1282;73153;-81
2022/01/06 05:33:28;;;;;;;3.90;2.10;;;;;;;-0.79;100.00;100702.25;107511;1282;72852;-81
2022/01/06 05:35:55;;;;;;;7.40;2.20;;;;;;;-0.77;100.00;100709.09;107264;1287;62158;-81
2022/01/06 05:38:21;;;;;;;7.20;2.60;;;;;;;-0.76;100.00;100711.83;107456;1284;58333;-81
2022/01/06 05:40:48;;;;;;;9.00;2.60;;;;;;;-0.75;100.00;100712.96;107108;1273;74039;-81
2022/01/06 05:43:15;;;;;;;9.40;2.50;;;;;;;-0.75;100.00;100713.27;107499;1271;74967;-82
2022/01/06 05:45:42;;;;;;;7.70;1.80;;;;;;;-0.73;100.00;100713.34;107505;1282;73950;-80
2022/01/06 05:48:09;;;;;;;9.70;2.30;;;;;;;-0.72;100.00;100715.55;107527;1282;61364;-80
2022/01/06 05:50:35;;;;;;;4.50;1.80;;;;;;;-0.72;100.00;100717.64;107579;1282;60666;-81
2022/01/06 05:53:02;;;;;;;8.50;2.60;;;;;;;-0.73;99.97;100720.11;107633;1282;59498;-81
2022/01/06 05:55:28;;;;;;;4.50;2.10;;;;;;;-0.71;99.99;100726.42;107673;1271;70603;-82
2022/01/06 06:06:45;;;;;;;11.30;2.00;;;;;;;-0.61;100.00;100730.61;108166;1268;72661;31
2022/01/06 06:09:11;;;;;;;7.00;2.50;;;;;;;-0.58;100.00;100735.97;107625;1269;71549;-79
2022/01/06 06:11:38;;;;;;;7.90;2.90;;;;;;;-0.59;100.00;100733.58;107856;1272;75482;-81
2022/01/06 06:14:05;;;;;;;14.70;3.30;;;;;;;-0.55;100.00;100741.52;107548;1282;61165;-82
2022/01/06 06:16:31;;;;;;;13.00;3.50;;;;;;;-0.54;99.99;100744.04;107528;1284;60287;-82
2022/01/06 06:19:01;;;;;;;9.30;3.10;;;;;;;-0.53;100.00;100750.23;107567;1282;74108;-82
2022/01/06 06:21:27;;;;;;;11.40;3.00;;;;;;;-0.55;99.85;100758.34;107561;1283;72749;-83
2022/01/06 06:23:54;;;;;;;8.50;3.30;;;;;;;-0.57;99.91;100761.11;107760;1281;72972;-82
2022/01/06 06:26:20;;;;;;;9.80;3.60;;;;;;;-0.60;100.00;100766.48;107551;1284;61532;-82
2022/01/06 06:28:47;;;;;;;15.10;4.10;;;;;;;-0.62;100.00;100775.98;107705;1281;58349;-81
2022/01/06 06:54:31;;;;;;;23.60;7.50;;;;;;;-0.64;100.00;100802.38;107828;1270;59992;-83
2022/01/06 06:56:57;;;;;;;24.70;7.50;;;;;;;-0.63;100.00;100809.24;107774;1281;61815;-83
2022/01/06 06:59:24;;;;;;;18.70;6.60;;;;;;;-0.62;100.00;100813.84;107796;1281;74990;-83
2022/01/06 07:01:51;;;;;;;19.00;5.80;;;;;;;-0.61;100.00;100817.13;107693;1281;72475;-80
2022/01/06 07:04:17;;;;;;;13.50;5.50;;;;;;;-0.61;100.00;100818.65;107864;1269;72811;-80
2022/01/06 07:06:44;;;;;;;16.60;5.30;;;;;;;-0.60;100.00;100823.84;107911;1272;58371;-81
2022/01/06 07:09:13;;;;;;;13.40;5.80;;;;;;;-0.62;100.00;100826.17;108375;1271;58321;-81
2022/01/06 07:11:39;;;;;;;26.60;7.30;;;;;;;-0.63;100.00;100826.40;107720;1272;76624;-80
2022/01/06 07:14:06;;;;;;;20.80;7.30;;;;;;;-0.62;100.00;100825.65;107972;1281;58321;-81
2022/01/06 07:16:32;;;;;;;22.40;7.70;;;;;;;-0.62;100.00;100832.63;107931;1281;58270;-81
2022/01/06 07:19:02;;;;;;;20.20;7.20;;;;;;;-0.64;100.00;100835.85;108102;1269;146186;-75
2022/01/06 07:21:28;;;;;;;17.00;6.20;;;;;;;-0.63;100.00;100837.18;107852;1281;61521;-78
2022/01/06 07:24:01;;;;;;;25.30;7.20;;;;;;;-0.61;100.00;100838.45;107819;1281;74130;-78
2022/01/06 07:26:30;;;;;;;18.40;7.20;;;;;;;-0.60;100.00;100839.59;107780;1281;71421;-78
2022/01/06 07:29:00;;;;;;;18.90;6.00;;;;;;;-0.59;100.00;100844.09;107861;1279;74022;-78
2022/01/06 07:31:26;;;;;;;18.00;6.60;;;;;;;-0.59;100.00;100842.85;107726;1282;60527;-78
2022/01/06 07:34:48;;;;;;;19.30;5.10;;;;;;;-0.57;100.00;100845.38;107942;1281;60334;-82
2022/01/06 07:37:27;;;;;;;19.80;6.40;;;;;;;-0.56;100.00;100846.66;107796;1282;73636;-83
2022/01/06 07:39:57;;;;;;;18.40;5.80;;;;;;;-0.54;100.00;100847.71;107369;1284;70378;-82
2022/01/06 07:42:32;;;;;;;54.00;17.00;;;;;;;-0.51;100.00;100851.16;107734;1282;72896;-82
2022/01/06 07:45:04;;;;;;;18.50;7.10;;;;;;;-0.47;100.00;100854.77;108001;1282;61585;-81
2022/01/06 07:47:33;;;;;;;24.30;6.70;;;;;;;-0.45;100.00;100862.81;108091;1282;60730;-83
2022/01/06 07:50:10;;;;;;;48.20;15.50;;;;;;;-0.45;100.00;100867.98;107753;1282;75288;-82
2022/01/06 07:52:46;;;;;;;27.20;7.50;;;;;;;-0.45;100.00;100875.96;107427;1284;73458;-82
2022/01/06 07:55:18;;;;;;;36.70;10.60;;;;;;;-0.45;100.00;100883.97;107768;1282;73992;-82
2022/01/06 08:07:18;;;;;;;;;;;;;;;;;;;;;
2022/01/06 08:12:35;;;;;;;30.90;8.40;;;;;;;-0.41;100.00;100899.35;107427;1276;152987;-77
2022/01/06 08:15:04;;;;;;;22.60;7.60;;;;;;;-0.37;100.00;100904.19;106941;1288;65543;-79
2022/01/06 08:17:30;;;;;;;19.20;6.70;;;;;;;-0.35;100.00;100904.90;106900;1289;74311;-79
2022/01/06 08:36:53;;;;;;;;;;;;;;;;;;;;;
2022/01/06 08:39:09;;;;;;;25.30;8.80;;;;;;;0.12;100.00;100930.48;107300;1277;58536;-80
2022/01/06 08:41:53;;;;;;;;;;;;;;;;;;;;;
2022/01/06 08:44:44;;;;;;;;;;;;;;;;;;;;;
2022/01/06 08:47:19;;;;;;;11.30;4.20;;;;;;;0.30;100.00;100927.71;107055;1288;71444;-80
2022/01/06 08:50:15;;;;;;;11.10;5.00;;;;;;;0.36;100.00;100932.40;107022;1278;74672;-78
2022/01/06 08:52:52;;;;;;;;;;;;;;;;;;;;;
2022/01/06 08:55:26;;;;;;;18.90;6.40;;;;;;;0.44;100.00;100936.91;107106;1288;60633;-80
2022/01/06 08:58:24;;;;;;;11.90;5.10;;;;;;;0.47;99.98;100943.11;107195;1287;75286;-80
2022/01/06 09:01:00;;;;;;;12.80;5.20;;;;;;;0.52;100.00;100942.30;107079;1288;72472;-79
2022/01/06 09:06:04;;;;;;;11.40;3.80;;;;;;;0.59;99.87;100944.73;106800;1278;62935;-81
2022/01/06 09:11:06;;;;;;;12.90;3.80;;;;;;;0.69;99.18;100949.48;106860;1277;74431;-82
2022/01/06 09:13:33;;;;;;;13.50;3.70;;;;;;;0.70;98.92;100945.61;106928;1278;72868;-80
2022/01/06 09:16:13;;;;;;;;;;;;;;;;;;;;;
2022/01/06 09:19:13;;;;;;;9.60;3.10;;;;;;;0.85;98.56;100956.20;106928;1278;59785;-80
2022/01/06 09:21:41;;;;;;;10.40;3.10;;;;;;;0.95;98.32;100964.24;107091;1287;60583;-76
2022/01/06 09:24:11;;;;;;;13.50;3.30;;;;;;;1.06;98.07;100962.45;106879;1290;74423;-78
2022/01/06 09:26:43;;;;;;;23.40;8.00;;;;;;;1.17;97.23;100965.67;106843;1288;71816;-77
2022/01/06 09:29:13;;;;;;;12.60;2.90;;;;;;;1.30;97.06;100971.70;107026;1287;73106;-81
2022/01/06 09:31:40;;;;;;;24.30;9.70;;;;;;;1.40;96.05;100972.73;106926;1290;62782;-79
2022/01/06 09:34:08;;;;;;;11.00;3.50;;;;;;;1.48;95.93;100970.11;106792;1278;61991;-77
2022/01/06 09:36:37;;;;;;;15.10;2.80;;;;;;;1.52;95.29;100969.66;106826;1278;74358;-78
2022/01/06 09:39:05;;;;;;;6.30;2.40;;;;;;;1.57;95.09;100973.81;106869;1278;70807;-78
2022/01/06 09:41:32;;;;;;;12.40;2.70;;;;;;;1.60;94.38;100972.89;107003;1277;72954;-80
2022/01/06 09:44:02;;;;;;;22.80;6.60;;;;;;;1.65;94.32;100974.30;107037;1288;62178;-78
2022/01/06 09:47:00;;;;;;;15.80;5.50;;;;;;;1.69;92.99;100979.27;107093;1288;62343;-79
2022/01/06 09:49:27;;;;;;;11.00;4.00;;;;;;;1.73;92.52;100983.69;106930;1288;73402;-80
2022/01/06 09:51:54;;;;;;;8.00;2.20;;;;;;;1.76;91.78;100990.39;106791;1290;71588;-76
2022/01/06 09:54:21;;;;;;;13.60;5.40;;;;;;;1.79;91.35;100996.46;106997;1288;74114;-77
2022/01/06 09:56:48;;;;;;;9.80;3.40;;;;;;;1.83;91.13;100995.33;107137;1288;63799;-76
2022/01/06 09:59:15;;;;;;;6.40;2.30;;;;;;;1.86;91.24;100996.99;106876;1288;59328;-77
2022/01/06 10:02:01;;;;;;;;;;;;;;;;;;;;;
2022/01/06 10:04:38;;;;;;;10.40;2.10;;;;;;;1.95;90.44;100993.72;107164;1288;71419;-80
2022/01/06 10:07:06;;;;;;;7.30;3.30;;;;;;;2.00;90.28;100998.08;107213;1288;73355;-80
2022/01/06 10:09:35;;;;;;;6.20;2.60;;;;;;;2.06;90.23;100998.16;107016;1289;61179;-79
2022/01/06 10:12:15;;;;;;;10.10;2.50;;;;;;;2.12;89.93;101000.38;107197;1288;60608;-79
2022/01/06 10:14:46;;;;;;;5.70;2.20;;;;;;;2.15;88.78;101004.11;107206;1288;73778;-79
2022/01/06 10:17:31;;;;;;;5.40;1.90;;;;;;;2.19;88.20;101001.38;106950;1289;72673;-78
2022/01/06 10:20:27;;;;;;;;;;;;;;;;;;;;;
2022/01/06 10:23:17;;;;;;;;;;;;;;;2.32;87.28;101012.02;106869;1290;63278;-78
2022/01/06 10:25:49;;;;;;;9.50;3.00;;;;;;;2.37;87.56;101012.63;107108;1288;61160;-78
2022/01/06 10:28:23;;;;;;;14.00;5.70;;;;;;;2.42;87.19;101006.34;106879;1289;75095;-78
2022/01/06 10:31:09;;;;;;;;;;;;;;;;;;;;;
2022/01/06 10:33:44;;;;;;;19.30;6.30;;;;;;;2.52;86.50;101005.80;107000;1277;73981;-77
2022/01/06 10:36:50;;;;;;;11.30;4.00;;;;;;;2.56;85.51;101006.14;107121;1288;59806;-78
2022/01/06 10:39:19;;;;;;;;;;;;;;;2.63;86.10;101014.90;107092;1288;62594;-78
2022/01/06 10:41:48;;;;;;;7.20;1.60;;;;;;;2.67;85.58;101014.96;107173;1287;75202;-78
2022/01/06 10:50:02;;;;;;;;;;;;;;;;;;;;;
2022/01/06 10:53:14;;;;;;;24.60;5.10;;;;;;;2.78;84.51;101016.20;107171;1286;60726;-78
2022/01/06 10:56:28;;;;;;;;;;;;;;;;;;;;;
2022/01/06 10:59:29;;;;;;;8.30;1.80;;;;;;;2.87;84.18;101029.49;107051;1287;71442;-77
2022/01/06 11:02:03;;;;;;;6.90;1.70;;;;;;;2.91;84.01;101030.48;107102;1287;73506;-77
2022/01/06 11:04:31;;;;;;;6.90;1.20;;;;;;;2.94;84.29;101027.41;107189;1287;61346;-77
2022/01/06 11:06:58;;;;;;;4.60;1.70;;;;;;;2.99;84.62;101029.66;107045;1287;60697;-77
2022/01/06 11:09:26;;;;;;;7.10;2.60;;;;;;;3.04;83.90;101028.58;107112;1288;75215;-77
2022/01/06 11:14:28;;;;;;;10.80;3.20;;;;;;;3.16;83.49;101027.31;107198;1287;72917;-77
2022/01/06 11:16:58;;;;;;;8.80;1.50;;;;;;;3.21;83.25;101029.65;107212;1286;63981;-77
2022/01/06 11:19:28;;;;;;;4.60;1.50;;;;;;;3.29;83.32;101034.73;107097;1287;61869;-76
2022/01/06 11:22:10;;;;;;;;;;;;;;;;;;;;;
2022/01/06 11:24:38;;;;;;;9.10;2.60;;;;;;;3.47;82.12;101042.38;107205;1287;71459;-78
2022/01/06 11:27:10;;;;;;;5.50;1.90;;;;;;;3.49;82.01;101046.89;107212;1287;74325;-76
2022/01/06 11:29:40;;;;;;;6.10;2.20;;;;;;;3.55;81.44;101043.84;107218;1287;62218;-78
2022/01/06 11:32:21;;;;;;;7.70;1.90;;;;;;;3.77;81.64;101037.21;107219;1287;60673;-79
2022/01/06 11:35:00;;;;;;;4.80;1.50;;;;;;;4.03;80.65;101038.23;107102;1287;74050;-75
2022/01/06 11:37:39;;;;;;;7.70;1.60;;;;;;;4.28;78.80;101040.29;107129;1288;73001;-75
2022/01/06 11:40:06;;;;;;;5.80;1.60;;;;;;;4.57;77.61;101029.80;107085;1287;72040;-76
2022/01/06 11:42:33;;;;;;;7.00;1.70;;;;;;;4.80;76.37;101030.15;107112;1287;60621;-76
2022/01/06 11:45:00;;;;;;;8.20;1.90;;;;;;;4.97;75.45;101028.89;107103;1288;60707;-76
2022/01/06 11:47:30;;;;;;;9.20;2.80;;;;;;;5.26;76.53;101028.21;106953;1288;75336;-76
2022/01/06 11:50:14;;;;;;;9.30;1.80;;;;;;;5.54;75.40;101025.90;107030;1289;71300;-76
2022/01/06 11:52:59;;;;;;;14.20;3.00;;;;;;;5.87;74.26;101027.33;107094;1288;73975;-75
2022/01/06 11:55:33;;;;;;;4.00;1.60;;;;;;;6.07;71.65;101027.23;107065;1288;60710;-75
2022/01/06 11:58:12;;;;;;;7.30;1.90;;;;;;;6.28;71.38;101028.24;107147;1288;60597;-76
2022/01/06 12:00:42;;;;;;;8.10;1.60;;;;;;;6.42;70.18;101027.08;107041;1288;72635;-77
2022/01/06 12:03:12;;;;;;;9.20;1.70;;;;;;;6.56;69.29;101024.77;107148;1288;71350;-76
2022/01/06 12:05:51;;;;;;;5.70;1.40;;;;;;;6.68;68.93;101023.91;107122;1287;72982;-76
2022/01/06 12:08:35;;;;;;;12.60;2.20;;;;;;;6.84;67.14;101027.13;107082;1288;60223;-77
2022/01/06 12:11:02;;;;;;;4.60;1.50;;;;;;;7.09;66.82;101027.95;107120;1288;61615;-78
2022/01/06 12:13:29;;;;;;;6.30;1.90;;;;;;;7.23;65.90;101030.70;107152;1287;74256;-77
2022/01/06 12:15:58;;;;;;;10.90;4.00;;;;;;;7.48;65.48;101037.98;107086;1287;72325;-75
2022/01/06 12:18:32;;;;;;;6.90;2.00;;;;;;;7.67;64.55;101034.64;107121;1288;73165;-77
2022/01/06 12:20:59;;;;;;;10.50;2.30;;;;;;;7.85;63.41;101034.86;107101;1288;60793;-77
2022/01/06 12:23:33;;;;;;;14.70;2.10;;;;;;;8.05;63.88;101031.08;107103;1288;60694;-77
2022/01/06 12:26:04;;;;;;;9.40;1.70;;;;;;;8.19;62.51;101033.80;107144;1288;75366;-77
2022/01/06 12:28:33;;;;;;;7.60;1.60;;;;;;;8.32;61.84;101031.43;107091;1288;71438;-76
2022/01/06 12:31:05;;;;;;;6.60;2.00;;;;;;;8.49;60.89;101032.08;107092;1288;73121;-77
2022/01/06 12:33:42;;;;;;;10.10;2.30;;;;;;;8.63;60.09;101028.40;107097;1288;60202;-75
2022/01/06 12:36:09;;;;;;;14.40;3.20;;;;;;;8.77;60.24;101027.88;107099;1289;59574;-75
2022/01/06 12:38:39;;;;;;;7.50;1.50;;;;;;;8.96;59.81;101030.23;107021;1289;75597;-75
2022/01/06 12:41:06;;;;;;;7.10;2.10;;;;;;;9.17;58.33;101033.02;107078;1288;72338;-75
2022/01/06 12:43:37;;;;;;;8.40;2.40;;;;;;;9.41;58.43;101027.05;107024;1288;73034;-75
2022/01/06 12:46:11;;;;;;;11.30;2.40;;;;;;;9.57;55.96;101025.58;107082;1288;61599;-76
2022/01/06 12:48:39;;;;;;;6.60;2.00;;;;;;;9.88;55.50;101024.55;107111;1288;60193;-76
2022/01/06 12:51:11;;;;;;;6.80;2.20;;;;;;;10.35;54.75;101026.08;107079;1288;74869;-76
2022/01/06 12:53:43;;;;;;;5.30;1.60;;;;;;;10.82;53.83;101029.17;107075;1290;71409;-79
2022/01/06 12:56:39;;;;;;;7.80;1.80;;;;;;;10.96;51.05;101032.95;107105;1287;75504;-76
2022/01/06 12:59:07;;;;;;;9.70;2.00;;;;;;;11.32;51.86;101038.88;106940;1290;60405;-79
2022/01/06 13:01:34;;;;;;;7.80;2.40;;;;;;;11.56;50.43;101041.65;107080;1287;61701;-77
2022/01/06 13:04:02;;;;;;;6.70;2.60;;;;;;;11.82;50.38;101040.90;107057;1288;75199;-77
2022/01/06 13:06:30;;;;;;;8.70;2.10;;;;;;;11.97;49.55;101038.84;106846;1288;70402;-77
2022/01/06 13:08:59;;;;;;;5.30;1.90;;;;;;;11.98;48.62;101038.38;107050;1289;72057;-78
2022/01/06 13:11:48;;;;;;;5.60;1.60;;;;;;;11.46;49.74;101037.83;107052;1288;61681;-78
2022/01/06 13:14:37;;;;;;;8.90;2.20;;;;;;;11.05;49.78;101042.39;107038;1288;59709;-77